sensor_id;sensor_type;location;lat;lon;timestamp;temperature;humidity
8965;DHT22;4517;49.020;12.066;2023-03-21T00:00:54;7.00;99.90
8965;DHT22;4517;49.020;12.066;2023-03-21T00:03:20;6.90;99.90
8965;DHT22;4517;49.020;12.066;2023-03-21T00:05:46;6.90;99.90
8965;DHT22;4517;49.020;12.066;2023-03-21T00:08:16;6.80;99.90
8965;DHT22;4517;49.020;12.066;2023-03-21T00:10:42;6.80;99.90
8965;DHT22;4517;49.020;12.066;2023-03-21T00:13:10;6.80;99.90
8965;DHT22;4517;49.020;12.066;2023-03-21T00:15:37;6.80;99.90
8965;DHT22;4517;49.020;12.066;2023-03-21T00:18:17;6.80;99.90
8965;DHT22;4517;49.020;12.066;2023-03-21T00:21:01;6.80;99.90
8965;DHT22;4517;49.020;12.066;2023-03-21T00:23:28;6.70;99.90
8965;DHT22;4517;49.020;12.066;2023-03-21T00:25:54;6.60;99.90
8965;DHT22;4517;49.020;12.066;2023-03-21T00:28:21;6.50;99.90
8965;DHT22;4517;49.020;12.066;2023-03-21T00:30:46;6.40;99.90
8965;DHT22;4517;49.020;12.066;2023-03-21T00:33:12;6.30;99.90
8965;DHT22;4517;49.020;12.066;2023-03-21T00:35:39;6.20;99.90
8965;DHT22;4517;49.020;12.066;2023-03-21T00:38:09;6.20;99.90
8965;DHT22;4517;49.020;12.066;2023-03-21T00:40:35;6.20;99.90
8965;DHT22;4517;49.020;12.066;2023-03-21T00:43:01;6.20;99.90
8965;DHT22;4517;49.020;12.066;2023-03-21T00:45:26;6.20;99.90
8965;DHT22;4517;49.020;12.066;2023-03-21T00:47:53;6.20;99.90
8965;DHT22;4517;49.020;12.066;2023-03-21T00:50:19;6.20;99.90
8965;DHT22;4517;49.020;12.066;2023-03-21T00:52:45;6.20;99.90
8965;DHT22;4517;49.020;12.066;2023-03-21T00:55:15;6.20;99.90
8965;DHT22;4517;49.020;12.066;2023-03-21T00:57:41;6.20;99.90
8965;DHT22;4517;49.020;12.066;2023-03-21T01:00:10;6.20;99.90
8965;DHT22;4517;49.020;12.066;2023-03-21T01:02:38;6.20;99.90
8965;DHT22;4517;49.020;12.066;2023-03-21T01:05:26;6.30;99.90
8965;DHT22;4517;49.020;12.066;2023-03-21T01:08:12;6.30;99.90
8965;DHT22;4517;49.020;12.066;2023-03-21T01:10:39;6.40;99.90
8965;DHT22;4517;49.020;12.066;2023-03-21T01:13:06;6.50;99.90
8965;DHT22;4517;49.020;12.066;2023-03-21T01:15:32;6.50;99.90
8965;DHT22;4517;49.020;12.066;2023-03-21T01:17:57;6.50;99.90
8965;DHT22;4517;49.020;12.066;2023-03-21T01:20:23;6.50;99.90
8965;DHT22;4517;49.020;12.066;2023-03-21T01:22:48;6.50;99.90
8965;DHT22;4517;49.020;12.066;2023-03-21T01:25:14;6.60;99.90
8965;DHT22;4517;49.020;12.066;2023-03-21T01:27:40;6.60;99.90
8965;DHT22;4517;49.020;12.066;2023-03-21T01:30:06;6.60;99.90
8965;DHT22;4517;49.020;12.066;2023-03-21T01:32:32;6.60;99.90
8965;DHT22;4517;49.020;12.066;2023-03-21T01:34:57;6.70;99.90
8965;DHT22;4517;49.020;12.066;2023-03-21T01:37:23;6.70;99.90
8965;DHT22;4517;49.020;12.066;2023-03-21T01:39:51;6.80;99.90
8965;DHT22;4517;49.020;12.066;2023-03-21T01:42:16;6.90;99.90
8965;DHT22;4517;49.020;12.066;2023-03-21T01:45:01;7.00;99.90
8965;DHT22;4517;49.020;12.066;2023-03-21T01:47:27;7.10;99.90
8965;DHT22;4517;49.020;12.066;2023-03-21T01:49:56;7.30;99.90
8965;DHT22;4517;49.020;12.066;2023-03-21T01:52:31;7.40;99.90
8965;DHT22;4517;49.020;12.066;2023-03-21T01:54:58;7.40;99.90
8965;DHT22;4517;49.020;12.066;2023-03-21T01:57:29;7.30;99.90
8965;DHT22;4517;49.020;12.066;2023-03-21T01:59:58;7.30;99.90
8965;DHT22;4517;49.020;12.066;2023-03-21T02:02:32;7.20;99.90
8965;DHT22;4517;49.020;12.066;2023-03-21T02:05:02;7.30;99.90
8965;DHT22;4517;49.020;12.066;2023-03-21T02:07:30;7.30;99.90
8965;DHT22;4517;49.020;12.066;2023-03-21T02:10:01;7.20;99.90
8965;DHT22;4517;49.020;12.066;2023-03-21T02:12:29;7.10;99.90
8965;DHT22;4517;49.020;12.066;2023-03-21T02:14:56;7.00;99.90
8965;DHT22;4517;49.020;12.066;2023-03-21T02:17:44;7.00;99.90
8965;DHT22;4517;49.020;12.066;2023-03-21T02:20:40;6.90;99.90
8965;DHT22;4517;49.020;12.066;2023-03-21T02:29:10;6.90;99.90
8965;DHT22;4517;49.020;12.066;2023-03-21T02:37:22;6.80;99.90
8965;DHT22;4517;49.020;12.066;2023-03-21T02:40:02;6.80;99.90
8965;DHT22;4517;49.020;12.066;2023-03-21T02:45:25;6.70;99.90
8965;DHT22;4517;49.020;12.066;2023-03-21T02:47:58;6.70;99.90
8965;DHT22;4517;49.020;12.066;2023-03-21T02:50:39;6.70;99.90
8965;DHT22;4517;49.020;12.066;2023-03-21T02:53:09;6.80;99.90
8965;DHT22;4517;49.020;12.066;2023-03-21T02:55:36;6.70;99.90
8965;DHT22;4517;49.020;12.066;2023-03-21T02:58:07;6.70;99.90
8965;DHT22;4517;49.020;12.066;2023-03-21T03:00:33;6.70;99.90
8965;DHT22;4517;49.020;12.066;2023-03-21T03:02:59;6.60;99.90
8965;DHT22;4517;49.020;12.066;2023-03-21T03:05:32;6.60;99.90
8965;DHT22;4517;49.020;12.066;2023-03-21T03:08:19;6.60;99.90
8965;DHT22;4517;49.020;12.066;2023-03-21T03:14:05;6.60;99.90
8965;DHT22;4517;49.020;12.066;2023-03-21T03:19:48;6.60;99.90
8965;DHT22;4517;49.020;12.066;2023-03-21T03:22:24;6.70;99.90
8965;DHT22;4517;49.020;12.066;2023-03-21T03:24:59;6.70;99.90
8965;DHT22;4517;49.020;12.066;2023-03-21T03:27:28;6.70;99.90
8965;DHT22;4517;49.020;12.066;2023-03-21T03:29:56;6.70;99.90
8965;DHT22;4517;49.020;12.066;2023-03-21T03:32:52;6.70;99.90
8965;DHT22;4517;49.020;12.066;2023-03-21T03:35:19;6.80;99.90
8965;DHT22;4517;49.020;12.066;2023-03-21T03:37:49;6.80;99.90
8965;DHT22;4517;49.020;12.066;2023-03-21T03:40:41;6.80;99.90
8965;DHT22;4517;49.020;12.066;2023-03-21T03:43:10;6.70;99.90
8965;DHT22;4517;49.020;12.066;2023-03-21T03:45:48;6.70;99.90
8965;DHT22;4517;49.020;12.066;2023-03-21T03:50:53;6.70;99.90
8965;DHT22;4517;49.020;12.066;2023-03-21T03:55:58;6.80;99.90
8965;DHT22;4517;49.020;12.066;2023-03-21T03:58:25;6.90;99.90
8965;DHT22;4517;49.020;12.066;2023-03-21T04:00:53;6.90;99.90
8965;DHT22;4517;49.020;12.066;2023-03-21T04:03:19;6.90;99.90
8965;DHT22;4517;49.020;12.066;2023-03-21T04:05:45;6.90;99.90
8965;DHT22;4517;49.020;12.066;2023-03-21T04:08:11;6.90;99.90
8965;DHT22;4517;49.020;12.066;2023-03-21T04:10:38;6.90;99.90
8965;DHT22;4517;49.020;12.066;2023-03-21T04:13:04;6.90;99.90
8965;DHT22;4517;49.020;12.066;2023-03-21T04:15:30;6.90;99.90
8965;DHT22;4517;49.020;12.066;2023-03-21T04:17:55;6.90;99.90
8965;DHT22;4517;49.020;12.066;2023-03-21T04:20:21;6.90;99.90
8965;DHT22;4517;49.020;12.066;2023-03-21T04:22:47;6.90;99.90
8965;DHT22;4517;49.020;12.066;2023-03-21T04:25:13;7.00;99.90
8965;DHT22;4517;49.020;12.066;2023-03-21T04:27:38;6.90;99.90
8965;DHT22;4517;49.020;12.066;2023-03-21T04:30:04;6.90;99.90
8965;DHT22;4517;49.020;12.066;2023-03-21T04:32:32;6.80;99.90
8965;DHT22;4517;49.020;12.066;2023-03-21T04:34:59;6.80;99.90
8965;DHT22;4517;49.020;12.066;2023-03-21T04:37:24;6.80;99.90
8965;DHT22;4517;49.020;12.066;2023-03-21T04:39:50;6.70;99.90
8965;DHT22;4517;49.020;12.066;2023-03-21T04:42:17;6.70;99.90
8965;DHT22;4517;49.020;12.066;2023-03-21T04:44:44;6.70;99.90
8965;DHT22;4517;49.020;12.066;2023-03-21T04:47:09;6.70;99.90
8965;DHT22;4517;49.020;12.066;2023-03-21T04:49:35;6.80;99.90
8965;DHT22;4517;49.020;12.066;2023-03-21T04:52:01;6.80;99.90
8965;DHT22;4517;49.020;12.066;2023-03-21T04:54:27;6.90;99.90
8965;DHT22;4517;49.020;12.066;2023-03-21T04:56:52;6.90;99.90
8965;DHT22;4517;49.020;12.066;2023-03-21T04:59:19;6.90;99.90
8965;DHT22;4517;49.020;12.066;2023-03-21T05:01:45;6.90;99.90
8965;DHT22;4517;49.020;12.066;2023-03-21T05:04:13;6.80;99.90
8965;DHT22;4517;49.020;12.066;2023-03-21T05:06:39;6.70;99.90
8965;DHT22;4517;49.020;12.066;2023-03-21T05:09:06;6.70;99.90
8965;DHT22;4517;49.020;12.066;2023-03-21T05:11:35;6.70;99.90
8965;DHT22;4517;49.020;12.066;2023-03-21T05:14:03;6.70;99.90
8965;DHT22;4517;49.020;12.066;2023-03-21T05:16:28;6.80;99.90
8965;DHT22;4517;49.020;12.066;2023-03-21T05:18:58;6.70;99.90
8965;DHT22;4517;49.020;12.066;2023-03-21T05:21:28;6.60;99.90
8965;DHT22;4517;49.020;12.066;2023-03-21T05:23:54;6.60;99.90
8965;DHT22;4517;49.020;12.066;2023-03-21T05:26:21;6.50;99.90
8965;DHT22;4517;49.020;12.066;2023-03-21T05:28:48;6.40;99.90
8965;DHT22;4517;49.020;12.066;2023-03-21T05:31:15;6.40;99.90
8965;DHT22;4517;49.020;12.066;2023-03-21T05:33:41;6.40;99.90
8965;DHT22;4517;49.020;12.066;2023-03-21T05:36:08;6.40;99.90
8965;DHT22;4517;49.020;12.066;2023-03-21T05:38:33;6.50;99.90
8965;DHT22;4517;49.020;12.066;2023-03-21T05:40:59;6.50;99.90
8965;DHT22;4517;49.020;12.066;2023-03-21T05:43:24;6.70;99.90
8965;DHT22;4517;49.020;12.066;2023-03-21T05:45:50;6.80;99.90
8965;DHT22;4517;49.020;12.066;2023-03-21T05:48:16;7.00;99.90
8965;DHT22;4517;49.020;12.066;2023-03-21T05:50:41;7.20;99.90
8965;DHT22;4517;49.020;12.066;2023-03-21T05:53:07;7.30;99.90
8965;DHT22;4517;49.020;12.066;2023-03-21T05:55:32;7.50;99.90
8965;DHT22;4517;49.020;12.066;2023-03-21T05:57:58;7.60;99.90
8965;DHT22;4517;49.020;12.066;2023-03-21T06:00:24;7.70;99.90
8965;DHT22;4517;49.020;12.066;2023-03-21T06:02:49;7.80;99.90
8965;DHT22;4517;49.020;12.066;2023-03-21T06:05:15;7.90;99.90
8965;DHT22;4517;49.020;12.066;2023-03-21T06:07:40;7.90;99.90
8965;DHT22;4517;49.020;12.066;2023-03-21T06:10:06;8.00;99.90
8965;DHT22;4517;49.020;12.066;2023-03-21T06:12:32;8.10;99.90
8965;DHT22;4517;49.020;12.066;2023-03-21T06:14:58;8.20;99.90
8965;DHT22;4517;49.020;12.066;2023-03-21T06:17:24;8.20;99.90
8965;DHT22;4517;49.020;12.066;2023-03-21T06:19:50;8.30;99.90
8965;DHT22;4517;49.020;12.066;2023-03-21T06:22:16;8.40;99.90
8965;DHT22;4517;49.020;12.066;2023-03-21T06:24:41;8.60;99.90
8965;DHT22;4517;49.020;12.066;2023-03-21T06:27:07;8.70;99.90
8965;DHT22;4517;49.020;12.066;2023-03-21T06:29:33;8.90;99.90
8965;DHT22;4517;49.020;12.066;2023-03-21T06:31:58;9.20;99.90
8965;DHT22;4517;49.020;12.066;2023-03-21T06:34:24;9.40;99.90
8965;DHT22;4517;49.020;12.066;2023-03-21T06:36:49;9.60;99.90
8965;DHT22;4517;49.020;12.066;2023-03-21T06:39:16;9.80;99.90
8965;DHT22;4517;49.020;12.066;2023-03-21T06:41:42;9.70;99.90
8965;DHT22;4517;49.020;12.066;2023-03-21T06:44:07;9.90;99.90
8965;DHT22;4517;49.020;12.066;2023-03-21T06:46:33;10.20;99.90
8965;DHT22;4517;49.020;12.066;2023-03-21T06:49:00;10.40;99.90
8965;DHT22;4517;49.020;12.066;2023-03-21T06:51:26;10.50;99.90
8965;DHT22;4517;49.020;12.066;2023-03-21T06:53:51;10.50;99.90
8965;DHT22;4517;49.020;12.066;2023-03-21T06:56:17;10.60;99.90
8965;DHT22;4517;49.020;12.066;2023-03-21T06:58:42;10.70;99.90
8965;DHT22;4517;49.020;12.066;2023-03-21T07:01:08;10.70;99.90
8965;DHT22;4517;49.020;12.066;2023-03-21T07:03:34;10.60;99.90
8965;DHT22;4517;49.020;12.066;2023-03-21T07:06:04;10.70;99.90
8965;DHT22;4517;49.020;12.066;2023-03-21T07:08:31;10.70;99.90
8965;DHT22;4517;49.020;12.066;2023-03-21T07:10:57;10.70;99.90
8965;DHT22;4517;49.020;12.066;2023-03-21T07:13:23;10.60;99.90
8965;DHT22;4517;49.020;12.066;2023-03-21T07:15:48;10.50;99.90
8965;DHT22;4517;49.020;12.066;2023-03-21T07:18:14;10.60;99.90
8965;DHT22;4517;49.020;12.066;2023-03-21T07:20:39;10.60;99.90
8965;DHT22;4517;49.020;12.066;2023-03-21T07:23:05;10.40;99.90
8965;DHT22;4517;49.020;12.066;2023-03-21T07:25:31;10.30;99.90
8965;DHT22;4517;49.020;12.066;2023-03-21T07:27:57;10.30;99.90
8965;DHT22;4517;49.020;12.066;2023-03-21T07:30:23;10.20;99.90
8965;DHT22;4517;49.020;12.066;2023-03-21T07:32:48;10.10;99.90
8965;DHT22;4517;49.020;12.066;2023-03-21T07:35:16;10.10;99.90
8965;DHT22;4517;49.020;12.066;2023-03-21T07:37:42;10.10;99.90
8965;DHT22;4517;49.020;12.066;2023-03-21T07:40:08;9.90;99.90
8965;DHT22;4517;49.020;12.066;2023-03-21T07:42:38;9.80;99.90
8965;DHT22;4517;49.020;12.066;2023-03-21T07:45:04;9.80;99.90
8965;DHT22;4517;49.020;12.066;2023-03-21T07:47:30;10.00;99.90
8965;DHT22;4517;49.020;12.066;2023-03-21T07:49:56;9.90;99.90
8965;DHT22;4517;49.020;12.066;2023-03-21T07:52:22;9.90;99.90
8965;DHT22;4517;49.020;12.066;2023-03-21T07:54:47;9.80;99.90
8965;DHT22;4517;49.020;12.066;2023-03-21T07:57:13;9.70;99.90
8965;DHT22;4517;49.020;12.066;2023-03-21T07:59:39;9.70;99.90
8965;DHT22;4517;49.020;12.066;2023-03-21T08:02:04;9.80;99.90
8965;DHT22;4517;49.020;12.066;2023-03-21T08:04:31;9.90;99.90
8965;DHT22;4517;49.020;12.066;2023-03-21T08:06:58;9.90;99.90
8965;DHT22;4517;49.020;12.066;2023-03-21T08:09:25;9.90;99.90
8965;DHT22;4517;49.020;12.066;2023-03-21T08:11:50;10.00;99.90
8965;DHT22;4517;49.020;12.066;2023-03-21T08:14:16;10.10;99.90
8965;DHT22;4517;49.020;12.066;2023-03-21T08:16:42;10.30;99.90
8965;DHT22;4517;49.020;12.066;2023-03-21T08:19:08;10.40;99.90
8965;DHT22;4517;49.020;12.066;2023-03-21T08:21:35;10.50;99.90
8965;DHT22;4517;49.020;12.066;2023-03-21T08:24:02;10.70;99.90
8965;DHT22;4517;49.020;12.066;2023-03-21T08:26:27;10.90;99.90
8965;DHT22;4517;49.020;12.066;2023-03-21T08:28:53;10.90;99.90
8965;DHT22;4517;49.020;12.066;2023-03-21T08:31:19;11.00;99.90
8965;DHT22;4517;49.020;12.066;2023-03-21T08:33:46;11.00;99.90
8965;DHT22;4517;49.020;12.066;2023-03-21T08:36:11;11.00;99.90
8965;DHT22;4517;49.020;12.066;2023-03-21T08:38:37;11.00;99.90
8965;DHT22;4517;49.020;12.066;2023-03-21T08:41:04;11.10;99.90
8965;DHT22;4517;49.020;12.066;2023-03-21T08:43:29;11.10;99.90
8965;DHT22;4517;49.020;12.066;2023-03-21T08:45:55;11.20;99.90
8965;DHT22;4517;49.020;12.066;2023-03-21T08:48:21;11.20;99.90
8965;DHT22;4517;49.020;12.066;2023-03-21T08:50:47;11.30;99.90
8965;DHT22;4517;49.020;12.066;2023-03-21T08:53:12;11.50;99.90
8965;DHT22;4517;49.020;12.066;2023-03-21T08:55:38;11.50;99.90
8965;DHT22;4517;49.020;12.066;2023-03-21T08:58:04;11.60;99.90
8965;DHT22;4517;49.020;12.066;2023-03-21T09:00:30;11.60;99.90
8965;DHT22;4517;49.020;12.066;2023-03-21T09:02:56;11.80;99.90
8965;DHT22;4517;49.020;12.066;2023-03-21T09:05:23;11.90;99.90
8965;DHT22;4517;49.020;12.066;2023-03-21T09:07:51;12.00;99.90
8965;DHT22;4517;49.020;12.066;2023-03-21T09:10:20;12.10;99.90
8965;DHT22;4517;49.020;12.066;2023-03-21T09:12:47;12.20;99.90
8965;DHT22;4517;49.020;12.066;2023-03-21T09:15:13;12.30;99.90
8965;DHT22;4517;49.020;12.066;2023-03-21T09:17:39;12.30;99.90
8965;DHT22;4517;49.020;12.066;2023-03-21T09:20:10;12.40;99.90
8965;DHT22;4517;49.020;12.066;2023-03-21T09:22:46;12.30;99.90
8965;DHT22;4517;49.020;12.066;2023-03-21T09:25:14;12.30;99.90
8965;DHT22;4517;49.020;12.066;2023-03-21T09:27:40;12.10;99.90
8965;DHT22;4517;49.020;12.066;2023-03-21T09:30:08;12.10;99.90
8965;DHT22;4517;49.020;12.066;2023-03-21T09:32:35;12.10;99.90
8965;DHT22;4517;49.020;12.066;2023-03-21T09:35:01;12.10;99.90
8965;DHT22;4517;49.020;12.066;2023-03-21T09:37:29;12.20;99.90
8965;DHT22;4517;49.020;12.066;2023-03-21T09:39:57;12.30;99.90
8965;DHT22;4517;49.020;12.066;2023-03-21T09:45:28;12.30;99.90
8965;DHT22;4517;49.020;12.066;2023-03-21T09:47:59;12.30;99.90
8965;DHT22;4517;49.020;12.066;2023-03-21T09:50:31;12.40;99.90
8965;DHT22;4517;49.020;12.066;2023-03-21T09:53:00;12.50;99.90
8965;DHT22;4517;49.020;12.066;2023-03-21T09:55:32;12.50;99.90
8965;DHT22;4517;49.020;12.066;2023-03-21T10:00:37;13.10;99.90
8965;DHT22;4517;49.020;12.066;2023-03-21T10:03:11;13.00;99.90
8965;DHT22;4517;49.020;12.066;2023-03-21T10:05:44;13.00;99.90
8965;DHT22;4517;49.020;12.066;2023-03-21T10:08:18;13.10;99.90
8965;DHT22;4517;49.020;12.066;2023-03-21T10:10:49;13.00;99.90
8965;DHT22;4517;49.020;12.066;2023-03-21T10:13:28;13.00;99.90
8965;DHT22;4517;49.020;12.066;2023-03-21T10:15:59;13.00;99.90
8965;DHT22;4517;49.020;12.066;2023-03-21T10:18:28;13.10;99.90
8965;DHT22;4517;49.020;12.066;2023-03-21T10:20:55;13.20;99.90
8965;DHT22;4517;49.020;12.066;2023-03-21T10:23:27;13.10;99.90
8965;DHT22;4517;49.020;12.066;2023-03-21T10:25:59;13.00;99.90
8965;DHT22;4517;49.020;12.066;2023-03-21T10:28:29;13.00;99.90
8965;DHT22;4517;49.020;12.066;2023-03-21T10:31:04;13.10;99.90
8965;DHT22;4517;49.020;12.066;2023-03-21T10:33:36;13.10;99.90
8965;DHT22;4517;49.020;12.066;2023-03-21T10:36:07;13.30;99.90
8965;DHT22;4517;49.020;12.066;2023-03-21T10:38:33;13.50;99.90
8965;DHT22;4517;49.020;12.066;2023-03-21T10:41:01;13.60;99.90
8965;DHT22;4517;49.020;12.066;2023-03-21T10:45:53;13.70;99.90
8965;DHT22;4517;49.020;12.066;2023-03-21T10:48:20;13.70;99.90
8965;DHT22;4517;49.020;12.066;2023-03-21T10:50:51;13.70;99.90
8965;DHT22;4517;49.020;12.066;2023-03-21T10:53:20;13.60;99.90
8965;DHT22;4517;49.020;12.066;2023-03-21T10:55:50;13.90;99.90
8965;DHT22;4517;49.020;12.066;2023-03-21T10:58:22;13.90;99.90
8965;DHT22;4517;49.020;12.066;2023-03-21T11:01:00;13.90;99.90
8965;DHT22;4517;49.020;12.066;2023-03-21T11:03:30;14.00;99.90
8965;DHT22;4517;49.020;12.066;2023-03-21T11:06:49;13.90;99.90
8965;DHT22;4517;49.020;12.066;2023-03-21T11:09:00;13.80;99.90
8965;DHT22;4517;49.020;12.066;2023-03-21T11:11:32;13.90;99.90
8965;DHT22;4517;49.020;12.066;2023-03-21T11:14:00;14.00;99.90
8965;DHT22;4517;49.020;12.066;2023-03-21T11:16:38;14.00;99.90
8965;DHT22;4517;49.020;12.066;2023-03-21T11:19:19;14.00;99.90
8965;DHT22;4517;49.020;12.066;2023-03-21T11:21:51;13.90;99.90
8965;DHT22;4517;49.020;12.066;2023-03-21T11:24:17;14.00;99.90
8965;DHT22;4517;49.020;12.066;2023-03-21T11:26:46;14.20;99.90
8965;DHT22;4517;49.020;12.066;2023-03-21T11:29:38;14.40;99.90
8965;DHT22;4517;49.020;12.066;2023-03-21T11:32:20;14.40;99.90
8965;DHT22;4517;49.020;12.066;2023-03-21T11:34:53;14.40;99.90
8965;DHT22;4517;49.020;12.066;2023-03-21T11:37:31;14.60;99.90
8965;DHT22;4517;49.020;12.066;2023-03-21T11:40:19;14.70;99.90
8965;DHT22;4517;49.020;12.066;2023-03-21T11:45:23;14.90;99.90
8965;DHT22;4517;49.020;12.066;2023-03-21T11:47:52;14.90;99.90
8965;DHT22;4517;49.020;12.066;2023-03-21T11:53:05;14.80;99.90
8965;DHT22;4517;49.020;12.066;2023-03-21T11:55:49;14.70;99.90
8965;DHT22;4517;49.020;12.066;2023-03-21T12:01:09;15.00;99.90
8965;DHT22;4517;49.020;12.066;2023-03-21T12:06:34;15.00;99.90
8965;DHT22;4517;49.020;12.066;2023-03-21T12:14:46;14.90;99.90
8965;DHT22;4517;49.020;12.066;2023-03-21T12:20:12;15.00;99.90
8965;DHT22;4517;49.020;12.066;2023-03-21T12:22:59;15.00;99.90
8965;DHT22;4517;49.020;12.066;2023-03-21T12:25:35;15.10;99.90
8965;DHT22;4517;49.020;12.066;2023-03-21T12:31:08;15.30;99.90
8965;DHT22;4517;49.020;12.066;2023-03-21T12:41:59;15.40;99.90
8965;DHT22;4517;49.020;12.066;2023-03-21T12:44:32;15.50;99.90
8965;DHT22;4517;49.020;12.066;2023-03-21T12:47:04;15.50;99.90
8965;DHT22;4517;49.020;12.066;2023-03-21T12:49:34;15.50;99.90
8965;DHT22;4517;49.020;12.066;2023-03-21T12:52:15;15.50;99.90
8965;DHT22;4517;49.020;12.066;2023-03-21T12:54:44;15.60;99.90
8965;DHT22;4517;49.020;12.066;2023-03-21T12:57:20;15.50;99.90
8965;DHT22;4517;49.020;12.066;2023-03-21T13:00:06;15.60;99.90
8965;DHT22;4517;49.020;12.066;2023-03-21T13:02:59;15.60;99.90
8965;DHT22;4517;49.020;12.066;2023-03-21T13:05:33;15.80;99.90
8965;DHT22;4517;49.020;12.066;2023-03-21T13:10:33;15.70;99.90
8965;DHT22;4517;49.020;12.066;2023-03-21T13:16:05;15.80;99.90
8965;DHT22;4517;49.020;12.066;2023-03-21T13:29:44;16.20;99.90
8965;DHT22;4517;49.020;12.066;2023-03-21T13:32:48;16.20;99.90
8965;DHT22;4517;49.020;12.066;2023-03-21T13:35:33;16.10;99.90
8965;DHT22;4517;49.020;12.066;2023-03-21T13:38:15;16.20;99.90
8965;DHT22;4517;49.020;12.066;2023-03-21T13:40:59;16.20;99.90
8965;DHT22;4517;49.020;12.066;2023-03-21T13:43:39;16.40;99.90
8965;DHT22;4517;49.020;12.066;2023-03-21T13:46:11;16.40;99.90
8965;DHT22;4517;49.020;12.066;2023-03-21T13:51:36;16.20;99.90
8965;DHT22;4517;49.020;12.066;2023-03-21T13:56:59;16.20;99.90
8965;DHT22;4517;49.020;12.066;2023-03-21T14:02:17;16.20;99.90
8965;DHT22;4517;49.020;12.066;2023-03-21T14:04:46;16.40;99.90
8965;DHT22;4517;49.020;12.066;2023-03-21T14:07:40;16.50;99.90
8965;DHT22;4517;49.020;12.066;2023-03-21T14:10:15;16.60;99.90
8965;DHT22;4517;49.020;12.066;2023-03-21T14:12:43;16.70;99.90
8965;DHT22;4517;49.020;12.066;2023-03-21T14:15:24;16.70;99.90
8965;DHT22;4517;49.020;12.066;2023-03-21T14:20:36;16.60;99.90
8965;DHT22;4517;49.020;12.066;2023-03-21T14:23:07;16.80;99.90
8965;DHT22;4517;49.020;12.066;2023-03-21T14:25:35;16.90;99.90
8965;DHT22;4517;49.020;12.066;2023-03-21T14:28:04;17.10;99.90
8965;DHT22;4517;49.020;12.066;2023-03-21T14:30:38;17.10;99.90
8965;DHT22;4517;49.020;12.066;2023-03-21T14:35:54;17.00;99.90
8965;DHT22;4517;49.020;12.066;2023-03-21T14:38:22;17.20;99.90
8965;DHT22;4517;49.020;12.066;2023-03-21T14:40:50;17.20;99.90
8965;DHT22;4517;49.020;12.066;2023-03-21T14:43:18;17.30;99.90
8965;DHT22;4517;49.020;12.066;2023-03-21T14:45:46;17.50;99.90
8965;DHT22;4517;49.020;12.066;2023-03-21T14:48:15;17.30;99.90
8965;DHT22;4517;49.020;12.066;2023-03-21T14:50:53;17.20;99.90
8965;DHT22;4517;49.020;12.066;2023-03-21T14:53:35;17.20;99.90
8965;DHT22;4517;49.020;12.066;2023-03-21T14:56:06;17.30;99.90
8965;DHT22;4517;49.020;12.066;2023-03-21T14:58:36;17.20;99.90
8965;DHT22;4517;49.020;12.066;2023-03-21T15:01:04;17.20;99.90
8965;DHT22;4517;49.020;12.066;2023-03-21T15:03:30;17.30;99.90
8965;DHT22;4517;49.020;12.066;2023-03-21T15:05:57;17.30;99.90
8965;DHT22;4517;49.020;12.066;2023-03-21T15:08:25;17.20;99.90
8965;DHT22;4517;49.020;12.066;2023-03-21T15:11:04;17.20;99.90
8965;DHT22;4517;49.020;12.066;2023-03-21T15:13:39;17.10;99.90
8965;DHT22;4517;49.020;12.066;2023-03-21T15:16:06;17.10;99.90
8965;DHT22;4517;49.020;12.066;2023-03-21T15:18:34;17.00;99.90
8965;DHT22;4517;49.020;12.066;2023-03-21T15:21:12;17.00;99.90
8965;DHT22;4517;49.020;12.066;2023-03-21T15:23:43;16.90;99.90
8965;DHT22;4517;49.020;12.066;2023-03-21T15:26:20;16.80;99.90
8965;DHT22;4517;49.020;12.066;2023-03-21T15:28:49;16.60;99.90
8965;DHT22;4517;49.020;12.066;2023-03-21T15:31:29;16.40;99.90
8965;DHT22;4517;49.020;12.066;2023-03-21T15:33:55;16.40;99.90
8965;DHT22;4517;49.020;12.066;2023-03-21T15:36:31;16.30;99.90
8965;DHT22;4517;49.020;12.066;2023-03-21T15:39:00;16.30;99.90
8965;DHT22;4517;49.020;12.066;2023-03-21T15:41:31;16.20;99.90
8965;DHT22;4517;49.020;12.066;2023-03-21T15:44:12;16.10;99.90
8965;DHT22;4517;49.020;12.066;2023-03-21T15:46:46;16.00;99.90
8965;DHT22;4517;49.020;12.066;2023-03-21T15:51:50;15.90;99.90
8965;DHT22;4517;49.020;12.066;2023-03-21T15:54:23;15.80;99.90
8965;DHT22;4517;49.020;12.066;2023-03-21T15:56:58;15.70;99.90
8965;DHT22;4517;49.020;12.066;2023-03-21T15:59:32;15.70;99.90
8965;DHT22;4517;49.020;12.066;2023-03-21T16:01:59;15.60;99.90
8965;DHT22;4517;49.020;12.066;2023-03-21T16:04:25;15.60;99.90
8965;DHT22;4517;49.020;12.066;2023-03-21T16:07:03;15.50;99.90
8965;DHT22;4517;49.020;12.066;2023-03-21T16:09:41;15.40;99.90
8965;DHT22;4517;49.020;12.066;2023-03-21T16:12:10;15.40;99.90
8965;DHT22;4517;49.020;12.066;2023-03-21T16:14:36;15.30;99.90
8965;DHT22;4517;49.020;12.066;2023-03-21T16:20:20;15.00;99.90
8965;DHT22;4517;49.020;12.066;2023-03-21T16:22:47;15.00;99.90
8965;DHT22;4517;49.020;12.066;2023-03-21T16:25:13;14.90;99.90
8965;DHT22;4517;49.020;12.066;2023-03-21T16:27:38;14.80;99.90
8965;DHT22;4517;49.020;12.066;2023-03-21T16:30:05;14.70;99.90
8965;DHT22;4517;49.020;12.066;2023-03-21T16:32:32;14.60;99.90
8965;DHT22;4517;49.020;12.066;2023-03-21T16:34:59;14.50;99.90
8965;DHT22;4517;49.020;12.066;2023-03-21T16:37:24;14.40;99.90
8965;DHT22;4517;49.020;12.066;2023-03-21T16:39:50;14.30;99.90
8965;DHT22;4517;49.020;12.066;2023-03-21T16:42:15;14.20;99.90
8965;DHT22;4517;49.020;12.066;2023-03-21T16:44:41;14.10;99.90
8965;DHT22;4517;49.020;12.066;2023-03-21T16:47:18;14.00;99.90
8965;DHT22;4517;49.020;12.066;2023-03-21T16:49:45;13.90;99.90
8965;DHT22;4517;49.020;12.066;2023-03-21T16:52:12;13.80;99.90
8965;DHT22;4517;49.020;12.066;2023-03-21T16:54:39;13.70;99.90
8965;DHT22;4517;49.020;12.066;2023-03-21T16:57:06;13.60;99.90
8965;DHT22;4517;49.020;12.066;2023-03-21T16:59:34;13.60;99.90
8965;DHT22;4517;49.020;12.066;2023-03-21T17:02:00;13.50;99.90
8965;DHT22;4517;49.020;12.066;2023-03-21T17:04:26;13.30;99.90
8965;DHT22;4517;49.020;12.066;2023-03-21T17:06:52;13.20;99.90
8965;DHT22;4517;49.020;12.066;2023-03-21T17:09:21;13.10;99.90
8965;DHT22;4517;49.020;12.066;2023-03-21T17:11:47;13.00;99.90
8965;DHT22;4517;49.020;12.066;2023-03-21T17:14:14;12.90;99.90
8965;DHT22;4517;49.020;12.066;2023-03-21T17:16:43;12.90;99.90
8965;DHT22;4517;49.020;12.066;2023-03-21T17:19:15;12.80;99.90
8965;DHT22;4517;49.020;12.066;2023-03-21T17:21:42;12.80;99.90
8965;DHT22;4517;49.020;12.066;2023-03-21T17:24:08;12.70;99.90
8965;DHT22;4517;49.020;12.066;2023-03-21T17:26:33;12.70;99.90
8965;DHT22;4517;49.020;12.066;2023-03-21T17:29:03;12.70;99.90
8965;DHT22;4517;49.020;12.066;2023-03-21T17:31:32;12.70;99.90
8965;DHT22;4517;49.020;12.066;2023-03-21T17:33:58;12.60;99.90
8965;DHT22;4517;49.020;12.066;2023-03-21T17:36:32;12.60;99.90
8965;DHT22;4517;49.020;12.066;2023-03-21T17:38:59;12.50;99.90
8965;DHT22;4517;49.020;12.066;2023-03-21T17:41:25;12.50;99.90
8965;DHT22;4517;49.020;12.066;2023-03-21T17:43:51;12.50;99.90
8965;DHT22;4517;49.020;12.066;2023-03-21T17:46:19;12.40;99.90
8965;DHT22;4517;49.020;12.066;2023-03-21T17:48:46;12.40;99.90